This is the latest recevied weather packets stored in our database for station/object SQ6PCH-10. If no packets are shown the sender has not sent any weather packets the latest 10 day(s).
| Time | Temp. | Humidity | Pressure | Rain* | Wind** | Luminosity | Snow |
|---|---|---|---|---|---|---|---|
| 1777607840 | 6.11° C | 72% | 1012.9 hPa | - | - | - | - |
| 1777607240 | 6.11° C | 72% | 1012.8 hPa | - | - | - | - |
| 1777606640 | 6.11° C | 72% | 1012.9 hPa | - | - | - | - |
| 1777606040 | 6.11° C | 70% | 1013 hPa | - | - | - | - |
| 1777605440 | 6.67° C | 70% | 1012.8 hPa | - | - | - | - |
| 1777604840 | 6.67° C | 69% | 1012.8 hPa | - | - | - | - |
| 1777604239 | 7.22° C | 68% | 1012.8 hPa | - | - | - | - |
| 1777603639 | 7.22° C | 66% | 1012.9 hPa | - | - | - | - |
| 1777603039 | 7.78° C | 65% | 1013 hPa | - | - | - | - |
| 1777602439 | 7.78° C | 63% | 1012.9 hPa | - | - | - | - |
| 1777601839 | 8.33° C | 62% | 1012.8 hPa | - | - | - | - |
| 1777601239 | 8.33° C | 61% | 1012.9 hPa | - | - | - | - |
| 1777586836 | 11.11° C | 47% | 1013.4 hPa | - | - | - | - |
| 1777583839 | 11.11° C | 46% | 1013.4 hPa | - | - | - | - |
| 1777583234 | 11.11° C | 48% | 1013.3 hPa | - | - | - | - |
| 1777579633 | 11.67° C | 45% | 1013.5 hPa | - | - | - | - |
| 1777576632 | 11.67° C | 42% | 1013.5 hPa | - | - | - | - |
| 1777576032 | 11.11° C | 42% | 1013.4 hPa | - | - | - | - |
| 1777575431 | 11.11° C | 42% | 1013.4 hPa | - | - | - | - |
| 1777573031 | 11.67° C | 40% | 1013.3 hPa | - | - | - | - |
| 1777571830 | 12.78° C | 37% | 1013.3 hPa | - | - | - | - |
| 1777570630 | 14.44° C | 32% | 1013.1 hPa | - | - | - | - |
| 1777568830 | 15° C | 31% | 1013.2 hPa | - | - | - | - |
| 1777567629 | 16.67° C | 27% | 1013.4 hPa | - | - | - | - |
| 1777565228 | 17.78° C | 26% | 1013.5 hPa | - | - | - | - |
* Rain since midnight (hover to see other rain measurements)
** Current wind speed in m/s (hover to see current wind gust speed)